Aviation Digital Data Service (ADDS)

Output produced by METARs form (0346 UTC 19 August 2019)
found at http://www.aviationweather.gov/metar/data/
 
METAR text: EKSP 190320Z 17006KT CAVOK 13/12 Q1007 RMK FEW084
Conditions at: EKSP (SKRYDSTRUP(DAN-A, DK) observed 0320 UTC 19 August 2019
Temperature: 13.0°C (55°F)
Dewpoint: 12.0°C (54°F) [RH = 94%]
Pressure (altimeter): 29.73 inches Hg (1007.0 mb)
Winds: from the S (170 degrees) at 7 MPH (6 knots; 3.1 m/s)
Visibility: 6 or more miles (10+ km)
Ceiling: ceiling and visibility are OK
Clouds: unknown
Weather: no significant weather observed at this time

METAR text: EKSP 190250Z 18006KT CAVOK 13/12 Q1007 RMK FEW084
Conditions at: EKSP (SKRYDSTRUP(DAN-A, DK) observed 0250 UTC 19 August 2019
Temperature: 13.0°C (55°F)
Dewpoint: 12.0°C (54°F) [RH = 94%]
Pressure (altimeter): 29.73 inches Hg (1007.0 mb)
Winds: from the S (180 degrees) at 7 MPH (6 knots; 3.1 m/s)
Visibility: 6 or more miles (10+ km)
Ceiling: ceiling and visibility are OK
Clouds: unknown
Weather: no significant weather observed at this time

METAR text: EKSP 190220Z 19005KT 9999 FEW026 SCT084 13/12 Q1007
Conditions at: EKSP (SKRYDSTRUP(DAN-A, DK) observed 0220 UTC 19 August 2019
Temperature: 13.0°C (55°F)
Dewpoint: 12.0°C (54°F) [RH = 94%]
Pressure (altimeter): 29.73 inches Hg (1007.0 mb)
Winds: from the S (190 degrees) at 6 MPH (5 knots; 2.6 m/s)
Visibility: 6 or more miles (10+ km)
Ceiling: at least 12,000 feet AGL
Clouds: few clouds at 2600 feet AGL
scattered clouds at 8400 feet AGL
Weather: no significant weather observed at this time

METAR text: EKSP 190150Z 20006KT 9999 FEW026 SCT090 13/12 Q1007
Conditions at: EKSP (SKRYDSTRUP(DAN-A, DK) observed 0150 UTC 19 August 2019
Temperature: 13.0°C (55°F)
Dewpoint: 12.0°C (54°F) [RH = 94%]
Pressure (altimeter): 29.73 inches Hg (1007.0 mb)
Winds: from the SSW (200 degrees) at 7 MPH (6 knots; 3.1 m/s)
Visibility: 6 or more miles (10+ km)
Ceiling: at least 12,000 feet AGL
Clouds: few clouds at 2600 feet AGL
scattered clouds at 9000 feet AGL
Weather: no significant weather observed at this time

METAR text: EKSP 190120Z 18005KT 9999 FEW026 SCT090 13/13 Q1007
Conditions at: EKSP (SKRYDSTRUP(DAN-A, DK) observed 0120 UTC 19 August 2019
Temperature: 13.0°C (55°F)
Dewpoint: 13.0°C (55°F) [RH = 100%]
Pressure (altimeter): 29.73 inches Hg (1007.0 mb)
Winds: from the S (180 degrees) at 6 MPH (5 knots; 2.6 m/s)
Visibility: 6 or more miles (10+ km)
Ceiling: at least 12,000 feet AGL
Clouds: few clouds at 2600 feet AGL
scattered clouds at 9000 feet AGL
Weather: no significant weather observed at this time

METAR text: EKSP 190050Z 17007KT 9999 FEW027 SCT050 13/12 Q1006
Conditions at: EKSP (SKRYDSTRUP(DAN-A, DK) observed 0050 UTC 19 August 2019
Temperature: 13.0°C (55°F)
Dewpoint: 12.0°C (54°F) [RH = 94%]
Pressure (altimeter): 29.70 inches Hg (1006.0 mb)
Winds: from the S (170 degrees) at 8 MPH (7 knots; 3.6 m/s)
Visibility: 6 or more miles (10+ km)
Ceiling: at least 12,000 feet AGL
Clouds: few clouds at 2700 feet AGL
scattered clouds at 5000 feet AGL
Weather: no significant weather observed at this time

METAR text: EKSP 190020Z 18005KT CAVOK 12/12 Q1007 RMK FEW050
Conditions at: EKSP (SKRYDSTRUP(DAN-A, DK) observed 0020 UTC 19 August 2019
Temperature: 12.0°C (54°F)
Dewpoint: 12.0°C (54°F) [RH = 100%]
Pressure (altimeter): 29.73 inches Hg (1007.0 mb)
Winds: from the S (180 degrees) at 6 MPH (5 knots; 2.6 m/s)
Visibility: 6 or more miles (10+ km)
Ceiling: ceiling and visibility are OK
Clouds: unknown
Weather: no significant weather observed at this time

METAR text: EKSP 182354Z 18005KT 9999 FEW013 13/12 Q1006
Conditions at: EKSP (SKRYDSTRUP(DAN-A, DK) observed 2354 UTC 18 August 2019
Temperature: 13.0°C (55°F)
Dewpoint: 12.0°C (54°F) [RH = 94%]
Pressure (altimeter): 29.70 inches Hg (1006.0 mb)
Winds: from the S (180 degrees) at 6 MPH (5 knots; 2.6 m/s)
Visibility: 6 or more miles (10+ km)
Ceiling: at least 12,000 feet AGL
Clouds: few clouds at 1300 feet AGL
Weather: no significant weather observed at this time

METAR text: EKSP 182350Z 18005KT 9999 MIFG FEW013 13/12 Q1006
Conditions at: EKSP (SKRYDSTRUP(DAN-A, DK) observed 2350 UTC 18 August 2019
Temperature: 13.0°C (55°F)
Dewpoint: 12.0°C (54°F) [RH = 94%]
Pressure (altimeter): 29.70 inches Hg (1006.0 mb)
Winds: from the S (180 degrees) at 6 MPH (5 knots; 2.6 m/s)
Visibility: 6 or more miles (10+ km)
Ceiling: at least 12,000 feet AGL
Clouds: few clouds at 1300 feet AGL
Weather: MIFG  (shallow fog)

METAR text: EKSP 182320Z 19005KT 9999 MIFG FEW013 12/12 Q1006
Conditions at: EKSP (SKRYDSTRUP(DAN-A, DK) observed 2320 UTC 18 August 2019
Temperature: 12.0°C (54°F)
Dewpoint: 12.0°C (54°F) [RH = 100%]
Pressure (altimeter): 29.70 inches Hg (1006.0 mb)
Winds: from the S (190 degrees) at 6 MPH (5 knots; 2.6 m/s)
Visibility: 6 or more miles (10+ km)
Ceiling: at least 12,000 feet AGL
Clouds: few clouds at 1300 feet AGL
Weather: MIFG  (shallow fog)

METAR text: EKSP 182250Z 18005KT 9999 MIFG FEW013 13/12 Q1006
Conditions at: EKSP (SKRYDSTRUP(DAN-A, DK) observed 2250 UTC 18 August 2019
Temperature: 13.0°C (55°F)
Dewpoint: 12.0°C (54°F) [RH = 94%]
Pressure (altimeter): 29.70 inches Hg (1006.0 mb)
Winds: from the S (180 degrees) at 6 MPH (5 knots; 2.6 m/s)
Visibility: 6 or more miles (10+ km)
Ceiling: at least 12,000 feet AGL
Clouds: few clouds at 1300 feet AGL
Weather: MIFG  (shallow fog)

METAR text: EKSP 182220Z 19005KT 9999 FEW013 13/13 Q1006
Conditions at: EKSP (SKRYDSTRUP(DAN-A, DK) observed 2220 UTC 18 August 2019
Temperature: 13.0°C (55°F)
Dewpoint: 13.0°C (55°F) [RH = 100%]
Pressure (altimeter): 29.70 inches Hg (1006.0 mb)
Winds: from the S (190 degrees) at 6 MPH (5 knots; 2.6 m/s)
Visibility: 6 or more miles (10+ km)
Ceiling: at least 12,000 feet AGL
Clouds: few clouds at 1300 feet AGL
Weather: no significant weather observed at this time

METAR text: EKSP 182150Z 19005KT 9999 FEW013 14/13 Q1006
Conditions at: EKSP (SKRYDSTRUP(DAN-A, DK) observed 2150 UTC 18 August 2019
Temperature: 14.0°C (57°F)
Dewpoint: 13.0°C (55°F) [RH = 94%]
Pressure (altimeter): 29.70 inches Hg (1006.0 mb)
Winds: from the S (190 degrees) at 6 MPH (5 knots; 2.6 m/s)
Visibility: 6 or more miles (10+ km)
Ceiling: at least 12,000 feet AGL
Clouds: few clouds at 1300 feet AGL
Weather: no significant weather observed at this time

METAR text: EKSP 182120Z 20006KT 9999 FEW013 14/13 Q1006
Conditions at: EKSP (SKRYDSTRUP(DAN-A, DK) observed 2120 UTC 18 August 2019
Temperature: 14.0°C (57°F)
Dewpoint: 13.0°C (55°F) [RH = 94%]
Pressure (altimeter): 29.70 inches Hg (1006.0 mb)
Winds: from the SSW (200 degrees) at 7 MPH (6 knots; 3.1 m/s)
Visibility: 6 or more miles (10+ km)
Ceiling: at least 12,000 feet AGL
Clouds: few clouds at 1300 feet AGL
Weather: no significant weather observed at this time

METAR text: EKSP 182050Z 21006KT CAVOK 14/13 Q1005 RMK FEW090
Conditions at: EKSP (SKRYDSTRUP(DAN-A, DK) observed 2050 UTC 18 August 2019
Temperature: 14.0°C (57°F)
Dewpoint: 13.0°C (55°F) [RH = 94%]
Pressure (altimeter): 29.68 inches Hg (1005.0 mb)
Winds: from the SSW (210 degrees) at 7 MPH (6 knots; 3.1 m/s)
Visibility: 6 or more miles (10+ km)
Ceiling: ceiling and visibility are OK
Clouds: unknown
Weather: no significant weather observed at this time

METAR text: EKSP 182020Z 21007KT CAVOK 15/14 Q1005 RMK BKN090
Conditions at: EKSP (SKRYDSTRUP(DAN-A, DK) observed 2020 UTC 18 August 2019
Temperature: 15.0°C (59°F)
Dewpoint: 14.0°C (57°F) [RH = 94%]
Pressure (altimeter): 29.68 inches Hg (1005.0 mb)
Winds: from the SSW (210 degrees) at 8 MPH (7 knots; 3.6 m/s)
Visibility: 6 or more miles (10+ km)
Ceiling: ceiling and visibility are OK
Clouds: unknown
Weather: no significant weather observed at this time

METAR text: EKSP 181950Z 19004KT CAVOK 14/13 Q1005 RMK FEW090
Conditions at: EKSP (SKRYDSTRUP(DAN-A, DK) observed 1950 UTC 18 August 2019
Temperature: 14.0°C (57°F)
Dewpoint: 13.0°C (55°F) [RH = 94%]
Pressure (altimeter): 29.68 inches Hg (1005.0 mb)
Winds: from the S (190 degrees) at 5 MPH (4 knots; 2.1 m/s)
Visibility: 6 or more miles (10+ km)
Ceiling: ceiling and visibility are OK
Clouds: unknown
Weather: no significant weather observed at this time

METAR text: EKSP 181920Z 22004KT CAVOK 15/14 Q1004 RMK FEW060
Conditions at: EKSP (SKRYDSTRUP(DAN-A, DK) observed 1920 UTC 18 August 2019
Temperature: 15.0°C (59°F)
Dewpoint: 14.0°C (57°F) [RH = 94%]
Pressure (altimeter): 29.65 inches Hg (1004.0 mb)
Winds: from the SW (220 degrees) at 5 MPH (4 knots; 2.1 m/s)
Visibility: 6 or more miles (10+ km)
Ceiling: ceiling and visibility are OK
Clouds: unknown
Weather: no significant weather observed at this time

METAR text: EKSP 181850Z 23006KT CAVOK 16/14 Q1004 RMK FEW060
Conditions at: EKSP (SKRYDSTRUP(DAN-A, DK) observed 1850 UTC 18 August 2019
Temperature: 16.0°C (61°F)
Dewpoint: 14.0°C (57°F) [RH = 88%]
Pressure (altimeter): 29.65 inches Hg (1004.0 mb)
Winds: from the SW (230 degrees) at 7 MPH (6 knots; 3.1 m/s)
Visibility: 6 or more miles (10+ km)
Ceiling: ceiling and visibility are OK
Clouds: unknown
Weather: no significant weather observed at this time

METAR text: EKSP 181820Z 23006KT 9999 FEW017 SCT060 16/14 Q1004
Conditions at: EKSP (SKRYDSTRUP(DAN-A, DK) observed 1820 UTC 18 August 2019
Temperature: 16.0°C (61°F)
Dewpoint: 14.0°C (57°F) [RH = 88%]
Pressure (altimeter): 29.65 inches Hg (1004.0 mb)
Winds: from the SW (230 degrees) at 7 MPH (6 knots; 3.1 m/s)
Visibility: 6 or more miles (10+ km)
Ceiling: at least 12,000 feet AGL
Clouds: few clouds at 1700 feet AGL
scattered clouds at 6000 feet AGL
Weather: no significant weather observed at this time

METAR text: EKSP 181750Z 24008KT 9999 FEW019 SCT035 BKN120 17/15 Q1004
Conditions at: EKSP (SKRYDSTRUP(DAN-A, DK) observed 1750 UTC 18 August 2019
Temperature: 17.0°C (63°F)
Dewpoint: 15.0°C (59°F) [RH = 88%]
Pressure (altimeter): 29.65 inches Hg (1004.0 mb)
Winds: from the WSW (240 degrees) at 9 MPH (8 knots; 4.1 m/s)
Visibility: 6 or more miles (10+ km)
Ceiling: 12000 feet AGL
Clouds: few clouds at 1900 feet AGL
scattered clouds at 3500 feet AGL
broken clouds at 12000 feet AGL
Weather: no significant weather observed at this time

METAR text: EKSP 181720Z 23010KT 9999 FEW019 SCT035 BKN120 17/14 Q1003
Conditions at: EKSP (SKRYDSTRUP(DAN-A, DK) observed 1720 UTC 18 August 2019
Temperature: 17.0°C (63°F)
Dewpoint: 14.0°C (57°F) [RH = 82%]
Pressure (altimeter): 29.62 inches Hg (1003.0 mb)
Winds: from the SW (230 degrees) at 12 MPH (10 knots; 5.1 m/s)
Visibility: 6 or more miles (10+ km)
Ceiling: 12000 feet AGL
Clouds: few clouds at 1900 feet AGL
scattered clouds at 3500 feet AGL
broken clouds at 12000 feet AGL
Weather: no significant weather observed at this time

METAR text: EKSP 181650Z 23010KT 9999 FEW013 SCT035 BKN080 17/14 Q1003
Conditions at: EKSP (SKRYDSTRUP(DAN-A, DK) observed 1650 UTC 18 August 2019
Temperature: 17.0°C (63°F)
Dewpoint: 14.0°C (57°F) [RH = 82%]
Pressure (altimeter): 29.62 inches Hg (1003.0 mb)
Winds: from the SW (230 degrees) at 12 MPH (10 knots; 5.1 m/s)
Visibility: 6 or more miles (10+ km)
Ceiling: 8000 feet AGL
Clouds: few clouds at 1300 feet AGL
scattered clouds at 3500 feet AGL
broken clouds at 8000 feet AGL
Weather: no significant weather observed at this time

METAR text: EKSP 181620Z 23009KT 190V250 9999 SCT013 FEW020TCU BKN050 16/15 Q1003
Conditions at: EKSP (SKRYDSTRUP(DAN-A, DK) observed 1620 UTC 18 August 2019
Temperature: 16.0°C (61°F)
Dewpoint: 15.0°C (59°F) [RH = 94%]
Pressure (altimeter): 29.62 inches Hg (1003.0 mb)
Winds: from the SW (230 degrees) at 10 MPH (9 knots; 4.6 m/s)
Visibility: 6 or more miles (10+ km)
Ceiling: 5000 feet AGL
Clouds: scattered clouds at 1300 feet AGL
few clouds at 2000 feet AGL
broken clouds at 5000 feet AGL
Weather: no significant weather observed at this time

METAR text: EKSP 181550Z 20007KT 9999 SCT013 FEW020TCU BKN050 16/15 Q1003
Conditions at: EKSP (SKRYDSTRUP(DAN-A, DK) observed 1550 UTC 18 August 2019
Temperature: 16.0°C (61°F)
Dewpoint: 15.0°C (59°F) [RH = 94%]
Pressure (altimeter): 29.62 inches Hg (1003.0 mb)
Winds: from the SSW (200 degrees) at 8 MPH (7 knots; 3.6 m/s)
Visibility: 6 or more miles (10+ km)
Ceiling: 5000 feet AGL
Clouds: scattered clouds at 1300 feet AGL
few clouds at 2000 feet AGL
broken clouds at 5000 feet AGL
Weather: no significant weather observed at this time

METAR text: EKSP 181537Z 20008KT 9999 FEW020 BKN050 16/15 Q1003
Conditions at: EKSP (SKRYDSTRUP(DAN-A, DK) observed 1537 UTC 18 August 2019
Temperature: 16.0°C (61°F)
Dewpoint: 15.0°C (59°F) [RH = 94%]
Pressure (altimeter): 29.62 inches Hg (1003.0 mb)
Winds: from the SSW (200 degrees) at 9 MPH (8 knots; 4.1 m/s)
Visibility: 6 or more miles (10+ km)
Ceiling: 5000 feet AGL
Clouds: few clouds at 2000 feet AGL
broken clouds at 5000 feet AGL
Weather: no significant weather observed at this time

METAR text: EKSP 181526Z 21008KT 5000 -SHRA FEW018TCU FEW020 BKN040 16/14 Q1003
Conditions at: EKSP (SKRYDSTRUP(DAN-A, DK) observed 1526 UTC 18 August 2019
Temperature: 16.0°C (61°F)
Dewpoint: 14.0°C (57°F) [RH = 88%]
Pressure (altimeter): 29.62 inches Hg (1003.0 mb)
Winds: from the SSW (210 degrees) at 9 MPH (8 knots; 4.1 m/s)
Visibility: 3 miles ( 5 km)
Ceiling: 4000 feet AGL
Clouds: few clouds at 1800 feet AGL
few clouds at 2000 feet AGL
broken clouds at 4000 feet AGL
Weather: -SHRA  (light rain showers)

METAR text: EKSP 181520Z 21009KT 8000 -SHRA FEW020 SCT050 BKN070 17/14 Q1003
Conditions at: EKSP (SKRYDSTRUP(DAN-A, DK) observed 1520 UTC 18 August 2019
Temperature: 17.0°C (63°F)
Dewpoint: 14.0°C (57°F) [RH = 82%]
Pressure (altimeter): 29.62 inches Hg (1003.0 mb)
Winds: from the SSW (210 degrees) at 10 MPH (9 knots; 4.6 m/s)
Visibility: 5 miles ( 8 km)
Ceiling: 7000 feet AGL
Clouds: few clouds at 2000 feet AGL
scattered clouds at 5000 feet AGL
broken clouds at 7000 feet AGL
Weather: -SHRA  (light rain showers)

METAR text: EKSP 181450Z 20009KT 9999 FEW020 SCT050 BKN070 17/13 Q1003
Conditions at: EKSP (SKRYDSTRUP(DAN-A, DK) observed 1450 UTC 18 August 2019
Temperature: 17.0°C (63°F)
Dewpoint: 13.0°C (55°F) [RH = 77%]
Pressure (altimeter): 29.62 inches Hg (1003.0 mb)
Winds: from the SSW (200 degrees) at 10 MPH (9 knots; 4.6 m/s)
Visibility: 6 or more miles (10+ km)
Ceiling: 7000 feet AGL
Clouds: few clouds at 2000 feet AGL
scattered clouds at 5000 feet AGL
broken clouds at 7000 feet AGL
Weather: no significant weather observed at this time

METAR text: EKSP 181420Z 19010KT 9999 FEW018 SCT044 BKN075 18/13 Q1003
Conditions at: EKSP (SKRYDSTRUP(DAN-A, DK) observed 1420 UTC 18 August 2019
Temperature: 18.0°C (64°F)
Dewpoint: 13.0°C (55°F) [RH = 73%]
Pressure (altimeter): 29.62 inches Hg (1003.0 mb)
Winds: from the S (190 degrees) at 12 MPH (10 knots; 5.1 m/s)
Visibility: 6 or more miles (10+ km)
Ceiling: 7500 feet AGL
Clouds: few clouds at 1800 feet AGL
scattered clouds at 4400 feet AGL
broken clouds at 7500 feet AGL
Weather: no significant weather observed at this time

METAR text: EKSP 181350Z 21007KT 9999 FEW018 SCT044 BKN060 17/14 Q1003
Conditions at: EKSP (SKRYDSTRUP(DAN-A, DK) observed 1350 UTC 18 August 2019
Temperature: 17.0°C (63°F)
Dewpoint: 14.0°C (57°F) [RH = 82%]
Pressure (altimeter): 29.62 inches Hg (1003.0 mb)
Winds: from the SSW (210 degrees) at 8 MPH (7 knots; 3.6 m/s)
Visibility: 6 or more miles (10+ km)
Ceiling: 6000 feet AGL
Clouds: few clouds at 1800 feet AGL
scattered clouds at 4400 feet AGL
broken clouds at 6000 feet AGL
Weather: no significant weather observed at this time

METAR text: EKSP 181320Z 20010KT 9999 -SHRA FEW018 SCT044 BKN075 17/14 Q1003
Conditions at: EKSP (SKRYDSTRUP(DAN-A, DK) observed 1320 UTC 18 August 2019
Temperature: 17.0°C (63°F)
Dewpoint: 14.0°C (57°F) [RH = 82%]
Pressure (altimeter): 29.62 inches Hg (1003.0 mb)
Winds: from the SSW (200 degrees) at 12 MPH (10 knots; 5.1 m/s)
Visibility: 6 or more miles (10+ km)
Ceiling: 7500 feet AGL
Clouds: few clouds at 1800 feet AGL
scattered clouds at 4400 feet AGL
broken clouds at 7500 feet AGL
Weather: -SHRA  (light rain showers)

METAR text: EKSP 181250Z 20009KT 9999 FEW018 SCT044 BKN075 17/15 Q1003
Conditions at: EKSP (SKRYDSTRUP(DAN-A, DK) observed 1250 UTC 18 August 2019
Temperature: 17.0°C (63°F)
Dewpoint: 15.0°C (59°F) [RH = 88%]
Pressure (altimeter): 29.62 inches Hg (1003.0 mb)
Winds: from the SSW (200 degrees) at 10 MPH (9 knots; 4.6 m/s)
Visibility: 6 or more miles (10+ km)
Ceiling: 7500 feet AGL
Clouds: few clouds at 1800 feet AGL
scattered clouds at 4400 feet AGL
broken clouds at 7500 feet AGL
Weather: no significant weather observed at this time

METAR text: EKSP 181220Z 20012KT 9999 -SHRA SCT018 FEW021TCU BKN075 17/14 Q1003
Conditions at: EKSP (SKRYDSTRUP(DAN-A, DK) observed 1220 UTC 18 August 2019
Temperature: 17.0°C (63°F)
Dewpoint: 14.0°C (57°F) [RH = 82%]
Pressure (altimeter): 29.62 inches Hg (1003.0 mb)
Winds: from the SSW (200 degrees) at 14 MPH (12 knots; 6.2 m/s)
Visibility: 6 or more miles (10+ km)
Ceiling: 7500 feet AGL
Clouds: scattered clouds at 1800 feet AGL
few clouds at 2100 feet AGL
broken clouds at 7500 feet AGL
Weather: -SHRA  (light rain showers)

METAR text: EKSP 181150Z 20011KT 9999 FEW012 SCT015 BKN075 18/15 Q1003
Conditions at: EKSP (SKRYDSTRUP(DAN-A, DK) observed 1150 UTC 18 August 2019
Temperature: 18.0°C (64°F)
Dewpoint: 15.0°C (59°F) [RH = 83%]
Pressure (altimeter): 29.62 inches Hg (1003.0 mb)
Winds: from the SSW (200 degrees) at 13 MPH (11 knots; 5.7 m/s)
Visibility: 6 or more miles (10+ km)
Ceiling: 7500 feet AGL
Clouds: few clouds at 1200 feet AGL
scattered clouds at 1500 feet AGL
broken clouds at 7500 feet AGL
Weather: no significant weather observed at this time

METAR text: EKSP 181120Z 19012KT 9999 FEW012 SCT014 BKN026 18/15 Q1003
Conditions at: EKSP (SKRYDSTRUP(DAN-A, DK) observed 1120 UTC 18 August 2019
Temperature: 18.0°C (64°F)
Dewpoint: 15.0°C (59°F) [RH = 83%]
Pressure (altimeter): 29.62 inches Hg (1003.0 mb)
Winds: from the S (190 degrees) at 14 MPH (12 knots; 6.2 m/s)
Visibility: 6 or more miles (10+ km)
Ceiling: 2600 feet AGL
Clouds: few clouds at 1200 feet AGL
scattered clouds at 1400 feet AGL
broken clouds at 2600 feet AGL
Weather: no significant weather observed at this time

METAR text: EKSP 181050Z 20011KT 170V230 9999 -SHRA FEW012 FEW021TCU BKN026 18/15 Q1003
Conditions at: EKSP (SKRYDSTRUP(DAN-A, DK) observed 1050 UTC 18 August 2019
Temperature: 18.0°C (64°F)
Dewpoint: 15.0°C (59°F) [RH = 83%]
Pressure (altimeter): 29.62 inches Hg (1003.0 mb)
Winds: from the SSW (200 degrees) at 13 MPH (11 knots; 5.7 m/s)
Visibility: 6 or more miles (10+ km)
Ceiling: 2600 feet AGL
Clouds: few clouds at 1200 feet AGL
few clouds at 2100 feet AGL
broken clouds at 2600 feet AGL
Weather: -SHRA  (light rain showers)

METAR text: EKSP 181020Z 18009KT 160V230 9999 -SHRA FEW010 BKN014 FEW020CB 18/15 Q1003
Conditions at: EKSP (SKRYDSTRUP(DAN-A, DK) observed 1020 UTC 18 August 2019
Temperature: 18.0°C (64°F)
Dewpoint: 15.0°C (59°F) [RH = 83%]
Pressure (altimeter): 29.62 inches Hg (1003.0 mb)
Winds: from the S (180 degrees) at 10 MPH (9 knots; 4.6 m/s)
Visibility: 6 or more miles (10+ km)
Ceiling: 1400 feet AGL
Clouds: few clouds at 1000 feet AGL
broken clouds at 1400 feet AGL
few clouds at 2000 feet AGL
Weather: -SHRA  (light rain showers)

METAR text: EKSP 180950Z 18011KT 9999 FEW008 BKN012 BKN110 18/16 Q1003
Conditions at: EKSP (SKRYDSTRUP(DAN-A, DK) observed 0950 UTC 18 August 2019
Temperature: 18.0°C (64°F)
Dewpoint: 16.0°C (61°F) [RH = 88%]
Pressure (altimeter): 29.62 inches Hg (1003.0 mb)
Winds: from the S (180 degrees) at 13 MPH (11 knots; 5.7 m/s)
Visibility: 6 or more miles (10+ km)
Ceiling: 1200 feet AGL
Clouds: few clouds at 800 feet AGL
broken clouds at 1200 feet AGL
broken clouds at 11000 feet AGL
Weather: no significant weather observed at this time

METAR text: EKSP 180920Z 18008KT 9999 SCT008 BKN012 BKN120 17/16 Q1003
Conditions at: EKSP (SKRYDSTRUP(DAN-A, DK) observed 0920 UTC 18 August 2019
Temperature: 17.0°C (63°F)
Dewpoint: 16.0°C (61°F) [RH = 94%]
Pressure (altimeter): 29.62 inches Hg (1003.0 mb)
Winds: from the S (180 degrees) at 9 MPH (8 knots; 4.1 m/s)
Visibility: 6 or more miles (10+ km)
Ceiling: 1200 feet AGL
Clouds: scattered clouds at 800 feet AGL
broken clouds at 1200 feet AGL
broken clouds at 12000 feet AGL
Weather: no significant weather observed at this time

METAR text: EKSP 180850Z 18008KT 9999 FEW005 BKN007 BKN012 17/16 Q1003
Conditions at: EKSP (SKRYDSTRUP(DAN-A, DK) observed 0850 UTC 18 August 2019
Temperature: 17.0°C (63°F)
Dewpoint: 16.0°C (61°F) [RH = 94%]
Pressure (altimeter): 29.62 inches Hg (1003.0 mb)
Winds: from the S (180 degrees) at 9 MPH (8 knots; 4.1 m/s)
Visibility: 6 or more miles (10+ km)
Ceiling: 700 feet AGL
Clouds: few clouds at 500 feet AGL
broken clouds at 700 feet AGL
broken clouds at 1200 feet AGL
Weather: no significant weather observed at this time

METAR text: EKSP 180820Z 18007KT 150V210 8000 FEW004 BKN006 BKN010 16/16 Q1003
Conditions at: EKSP (SKRYDSTRUP(DAN-A, DK) observed 0820 UTC 18 August 2019
Temperature: 16.0°C (61°F)
Dewpoint: 16.0°C (61°F) [RH = 100%]
Pressure (altimeter): 29.62 inches Hg (1003.0 mb)
Winds: from the S (180 degrees) at 8 MPH (7 knots; 3.6 m/s)
Visibility: 5 miles ( 8 km)
Ceiling: 600 feet AGL
Clouds: few clouds at 400 feet AGL
broken clouds at 600 feet AGL
broken clouds at 1000 feet AGL
Weather: no significant weather observed at this time

METAR text: EKSP 180812Z 17007KT 8000 FEW002 BKN006 16/16 Q1003
Conditions at: EKSP (SKRYDSTRUP(DAN-A, DK) observed 0812 UTC 18 August 2019
Temperature: 16.0°C (61°F)
Dewpoint: 16.0°C (61°F) [RH = 100%]
Pressure (altimeter): 29.62 inches Hg (1003.0 mb)
Winds: from the S (170 degrees) at 8 MPH (7 knots; 3.6 m/s)
Visibility: 5 miles ( 8 km)
Ceiling: 600 feet AGL
Clouds: few clouds at 200 feet AGL
broken clouds at 600 feet AGL
Weather: no significant weather observed at this time

METAR text: EKSP 180750Z 17005KT 5000 FEW001 BKN005 16/16 Q1003
Conditions at: EKSP (SKRYDSTRUP(DAN-A, DK) observed 0750 UTC 18 August 2019
Temperature: 16.0°C (61°F)
Dewpoint: 16.0°C (61°F) [RH = 100%]
Pressure (altimeter): 29.62 inches Hg (1003.0 mb)
Winds: from the S (170 degrees) at 6 MPH (5 knots; 2.6 m/s)
Visibility: 3 miles ( 5 km)
Ceiling: 500 feet AGL
Clouds: few clouds at 100 feet AGL
broken clouds at 500 feet AGL
Weather: no significant weather observed at this time

METAR text: EKSP 180738Z 16005KT 140V200 3500 BR SCT001 BKN004 16/16 Q1003
Conditions at: EKSP (SKRYDSTRUP(DAN-A, DK) observed 0738 UTC 18 August 2019
Temperature: 16.0°C (61°F)
Dewpoint: 16.0°C (61°F) [RH = 100%]
Pressure (altimeter): 29.62 inches Hg (1003.0 mb)
Winds: from the SSE (160 degrees) at 6 MPH (5 knots; 2.6 m/s)
Visibility: 2.17 miles (3.49 km)
Ceiling: 400 feet AGL
Clouds: scattered clouds at 100 feet AGL
broken clouds at 400 feet AGL
Weather: BR  (mist)

METAR text: EKSP 180731Z 17005KT 2100 BR BKN001 BKN002 16/16 Q1004
Conditions at: EKSP (SKRYDSTRUP(DAN-A, DK) observed 0731 UTC 18 August 2019
Temperature: 16.0°C (61°F)
Dewpoint: 16.0°C (61°F) [RH = 100%]
Pressure (altimeter): 29.65 inches Hg (1004.0 mb)
Winds: from the S (170 degrees) at 6 MPH (5 knots; 2.6 m/s)
Visibility: 1.30 miles (2.09 km)
Ceiling: 100 feet AGL
Clouds: broken clouds at 100 feet AGL
broken clouds at 200 feet AGL
Weather: BR  (mist)

METAR text: EKSP 180720Z 17005KT 140V200 1400 R10/1400N R28/1400D BR BKN001 BKN002 16/15 Q1004
Conditions at: EKSP (SKRYDSTRUP(DAN-A, DK) observed 0720 UTC 18 August 2019
Temperature: 16.0°C (61°F)
Dewpoint: 15.0°C (59°F) [RH = 94%]
Pressure (altimeter): 29.65 inches Hg (1004.0 mb)
Winds: from the S (170 degrees) at 6 MPH (5 knots; 2.6 m/s)
Visibility: 0.87 miles (1.40 km)
Ceiling: 100 feet AGL
Clouds: broken clouds at 100 feet AGL
broken clouds at 200 feet AGL
Weather: BR  (mist)

METAR text: EKSP 180716Z 17006KT 140V200 1400 R10/1600D R28/1500D BR BKN001 BKN002 16/16 Q1004
Conditions at: EKSP (SKRYDSTRUP(DAN-A, DK) observed 0716 UTC 18 August 2019
Temperature: 16.0°C (61°F)
Dewpoint: 16.0°C (61°F) [RH = 100%]
Pressure (altimeter): 29.65 inches Hg (1004.0 mb)
Winds: from the S (170 degrees) at 7 MPH (6 knots; 3.1 m/s)
Visibility: 0.87 miles (1.40 km)
Ceiling: 100 feet AGL
Clouds: broken clouds at 100 feet AGL
broken clouds at 200 feet AGL
Weather: BR  (mist)

METAR text: EKSP 180650Z 17007KT 1800 BR OVC001 15/15 Q1004
Conditions at: EKSP (SKRYDSTRUP(DAN-A, DK) observed 0650 UTC 18 August 2019
Temperature: 15.0°C (59°F)
Dewpoint: 15.0°C (59°F) [RH = 100%]
Pressure (altimeter): 29.65 inches Hg (1004.0 mb)
Winds: from the S (170 degrees) at 8 MPH (7 knots; 3.6 m/s)
Visibility: 1.12 miles (1.80 km)
Ceiling: 100 feet AGL
Clouds: overcast cloud deck at 100 feet AGL
Weather: BR  (mist)

METAR text: EKSP 180642Z 16006KT 1300 R10/1000U R28/1100U BR VV001 15/15 Q1004
Conditions at: EKSP (SKRYDSTRUP(DAN-A, DK) observed 0642 UTC 18 August 2019
Temperature: 15.0°C (59°F)
Dewpoint: 15.0°C (59°F) [RH = 100%]
Pressure (altimeter): 29.65 inches Hg (1004.0 mb)
Winds: from the SSE (160 degrees) at 7 MPH (6 knots; 3.1 m/s)
Visibility: 0.81 miles (1.30 km)
Ceiling: indefinite ceiling with vertical visibility of 100 feet AGL
Clouds: obscured sky
Weather: BR  (mist)

METAR text: EKSP 180624Z 17005KT 0700 R10/0700D R28/0750D FG VV001 15/15 Q1004
Conditions at: EKSP (SKRYDSTRUP(DAN-A, DK) observed 0624 UTC 18 August 2019
Temperature: 15.0°C (59°F)
Dewpoint: 15.0°C (59°F) [RH = 100%]
Pressure (altimeter): 29.65 inches Hg (1004.0 mb)
Winds: from the S (170 degrees) at 6 MPH (5 knots; 2.6 m/s)
Visibility: 0.43 miles (0.69 km)
Ceiling: indefinite ceiling with vertical visibility of 100 feet AGL
Clouds: obscured sky
Weather: FG  (fog)

METAR text: EKSP 180620Z 18005KT 0800 R10/1500D R28/0800D FG VV001 15/15 Q1004
Conditions at: EKSP (SKRYDSTRUP(DAN-A, DK) observed 0620 UTC 18 August 2019
Temperature: 15.0°C (59°F)
Dewpoint: 15.0°C (59°F) [RH = 100%]
Pressure (altimeter): 29.65 inches Hg (1004.0 mb)
Winds: from the S (180 degrees) at 6 MPH (5 knots; 2.6 m/s)
Visibility: 0.50 miles (0.80 km)
Ceiling: indefinite ceiling with vertical visibility of 100 feet AGL
Clouds: obscured sky
Weather: FG  (fog)

METAR text: EKSP 180619Z 18005KT 0900 R10/1600D R28/0800D FG VV001 15/15 Q1004
Conditions at: EKSP (SKRYDSTRUP(DAN-A, DK) observed 0619 UTC 18 August 2019
Temperature: 15.0°C (59°F)
Dewpoint: 15.0°C (59°F) [RH = 100%]
Pressure (altimeter): 29.65 inches Hg (1004.0 mb)
Winds: from the S (180 degrees) at 6 MPH (5 knots; 2.6 m/s)
Visibility: 0.56 miles (0.90 km)
Ceiling: indefinite ceiling with vertical visibility of 100 feet AGL
Clouds: obscured sky
Weather: FG  (fog)

METAR text: EKSP 180615Z 18005KT 1500 R10/1900D R28/1900D BR VV001 15/14 Q1004
Conditions at: EKSP (SKRYDSTRUP(DAN-A, DK) observed 0615 UTC 18 August 2019
Temperature: 15.0°C (59°F)
Dewpoint: 14.0°C (57°F) [RH = 94%]
Pressure (altimeter): 29.65 inches Hg (1004.0 mb)
Winds: from the S (180 degrees) at 6 MPH (5 knots; 2.6 m/s)
Visibility: 0.93 miles (1.50 km)
Ceiling: indefinite ceiling with vertical visibility of 100 feet AGL
Clouds: obscured sky
Weather: BR  (mist)

METAR text: EKSP 180610Z 18005KT 3000 BR BKN001 BKN150 15/14 Q1004
Conditions at: EKSP (SKRYDSTRUP(DAN-A, DK) observed 0610 UTC 18 August 2019
Temperature: 15.0°C (59°F)
Dewpoint: 14.0°C (57°F) [RH = 94%]
Pressure (altimeter): 29.65 inches Hg (1004.0 mb)
Winds: from the S (180 degrees) at 6 MPH (5 knots; 2.6 m/s)
Visibility: 1.86 miles (2.99 km)
Ceiling: 100 feet AGL
Clouds: broken clouds at 100 feet AGL
broken clouds at 15000 feet AGL
Weather: BR  (mist)

METAR text: EKSP 180550Z 16003KT 5000 NSC 14/14 Q1004 RMK FEW080 BKN150
Conditions at: EKSP (SKRYDSTRUP(DAN-A, DK) observed 0550 UTC 18 August 2019
Temperature: 14.0°C (57°F)
Dewpoint: 14.0°C (57°F) [RH = 100%]
Pressure (altimeter): 29.65 inches Hg (1004.0 mb)
Winds: from the SSE (160 degrees) at 3 MPH (3 knots; 1.5 m/s)
Visibility: 3 miles ( 5 km)
Ceiling: at least 12,000 feet AGL
Clouds: sky clear below 12,000 feet AGL
Weather: no significant weather observed at this time

METAR text: EKSP 180541Z 16004KT 5000 NSC 14/14 Q1004 RMK FEW080 BKN150
Conditions at: EKSP (SKRYDSTRUP(DAN-A, DK) observed 0541 UTC 18 August 2019
Temperature: 14.0°C (57°F)
Dewpoint: 14.0°C (57°F) [RH = 100%]
Pressure (altimeter): 29.65 inches Hg (1004.0 mb)
Winds: from the SSE (160 degrees) at 5 MPH (4 knots; 2.1 m/s)
Visibility: 3 miles ( 5 km)
Ceiling: at least 12,000 feet AGL
Clouds: sky clear below 12,000 feet AGL
Weather: no significant weather observed at this time

METAR text: EKSP 180520Z 16005KT 4500 BR NSC 13/13 Q1004 RMK FEW080 SCT150 BKN200
Conditions at: EKSP (SKRYDSTRUP(DAN-A, DK) observed 0520 UTC 18 August 2019
Temperature: 13.0°C (55°F)
Dewpoint: 13.0°C (55°F) [RH = 100%]
Pressure (altimeter): 29.65 inches Hg (1004.0 mb)
Winds: from the SSE (160 degrees) at 6 MPH (5 knots; 2.6 m/s)
Visibility: 2.80 miles (4.51 km)
Ceiling: at least 12,000 feet AGL
Clouds: sky clear below 12,000 feet AGL
Weather: BR  (mist)

METAR text: EKSP 180450Z 16004KT 4000 BR NSC 13/13 Q1004 RMK SCT080 BKN210
Conditions at: EKSP (SKRYDSTRUP(DAN-A, DK) observed 0450 UTC 18 August 2019
Temperature: 13.0°C (55°F)
Dewpoint: 13.0°C (55°F) [RH = 100%]
Pressure (altimeter): 29.65 inches Hg (1004.0 mb)
Winds: from the SSE (160 degrees) at 5 MPH (4 knots; 2.1 m/s)
Visibility: 2.49 miles (4.01 km)
Ceiling: at least 12,000 feet AGL
Clouds: sky clear below 12,000 feet AGL
Weather: BR  (mist)

METAR text: EKSP 180420Z 18004KT 1500 R10/P2000N R28/1600N BR NSC 12/12 Q1004 RMK FEW085 BKN210
Conditions at: EKSP (SKRYDSTRUP(DAN-A, DK) observed 0420 UTC 18 August 2019
Temperature: 12.0°C (54°F)
Dewpoint: 12.0°C (54°F) [RH = 100%]
Pressure (altimeter): 29.65 inches Hg (1004.0 mb)
Winds: from the S (180 degrees) at 5 MPH (4 knots; 2.1 m/s)
Visibility: 0.93 miles (1.50 km)
Ceiling: at least 12,000 feet AGL
Clouds: sky clear below 12,000 feet AGL
Weather: BR  (mist)

METAR text: EKSP 180352Z 17003KT 1500 R10/P2000N R28/1400N BR NSC 12/12 Q1004
Conditions at: EKSP (SKRYDSTRUP(DAN-A, DK) observed 0352 UTC 18 August 2019
Temperature: 12.0°C (54°F)
Dewpoint: 12.0°C (54°F) [RH = 100%]
Pressure (altimeter): 29.65 inches Hg (1004.0 mb)
Winds: from the S (170 degrees) at 3 MPH (3 knots; 1.5 m/s)
Visibility: 0.93 miles (1.50 km)
Ceiling: at least 12,000 feet AGL
Clouds: sky clear below 12,000 feet AGL
Weather: BR  (mist)

METAR text: EKSP 180250Z 16002KT 0800 R10/0650U R28/M0300D FG SCT002 12/12 Q1004
Conditions at: EKSP (SKRYDSTRUP(DAN-A, DK) observed 0250 UTC 18 August 2019
Temperature: 12.0°C (54°F)
Dewpoint: 12.0°C (54°F) [RH = 100%]
Pressure (altimeter): 29.65 inches Hg (1004.0 mb)
Winds: from the SSE (160 degrees) at 2 MPH (2 knots; 1.0 m/s)
Visibility: 0.50 miles (0.80 km)
Ceiling: at least 12,000 feet AGL
Clouds: scattered clouds at 200 feet AGL
Weather: FG  (fog)

METAR text: EKSP 180220Z 17004KT 0800 R10/1800U R28/0300U FG SCT002 12/12 Q1004
Conditions at: EKSP (SKRYDSTRUP(DAN-A, DK) observed 0220 UTC 18 August 2019
Temperature: 12.0°C (54°F)
Dewpoint: 12.0°C (54°F) [RH = 100%]
Pressure (altimeter): 29.65 inches Hg (1004.0 mb)
Winds: from the S (170 degrees) at 5 MPH (4 knots; 2.1 m/s)
Visibility: 0.50 miles (0.80 km)
Ceiling: at least 12,000 feet AGL
Clouds: scattered clouds at 200 feet AGL
Weather: FG  (fog)

METAR text: EKSP 180150Z 20003KT 0800 R10/0350N R28/0375N FG SCT002 13/12 Q1005
Conditions at: EKSP (SKRYDSTRUP(DAN-A, DK) observed 0150 UTC 18 August 2019
Temperature: 13.0°C (55°F)
Dewpoint: 12.0°C (54°F) [RH = 94%]
Pressure (altimeter): 29.68 inches Hg (1005.0 mb)
Winds: from the SSW (200 degrees) at 3 MPH (3 knots; 1.5 m/s)
Visibility: 0.50 miles (0.80 km)
Ceiling: at least 12,000 feet AGL
Clouds: scattered clouds at 200 feet AGL
Weather: FG  (fog)

METAR text: EKSP 180120Z 19004KT 0800 R10/M0300N R28/M0300N FG SCT002 13/13 Q1005
Conditions at: EKSP (SKRYDSTRUP(DAN-A, DK) observed 0120 UTC 18 August 2019
Temperature: 13.0°C (55°F)
Dewpoint: 13.0°C (55°F) [RH = 100%]
Pressure (altimeter): 29.68 inches Hg (1005.0 mb)
Winds: from the S (190 degrees) at 5 MPH (4 knots; 2.1 m/s)
Visibility: 0.50 miles (0.80 km)
Ceiling: at least 12,000 feet AGL
Clouds: scattered clouds at 200 feet AGL
Weather: FG  (fog)

METAR text: EKSP 180050Z 17005KT 3000 BR SCT002 13/13 Q1005
Conditions at: EKSP (SKRYDSTRUP(DAN-A, DK) observed 0050 UTC 18 August 2019
Temperature: 13.0°C (55°F)
Dewpoint: 13.0°C (55°F) [RH = 100%]
Pressure (altimeter): 29.68 inches Hg (1005.0 mb)
Winds: from the S (170 degrees) at 6 MPH (5 knots; 2.6 m/s)
Visibility: 1.86 miles (2.99 km)
Ceiling: at least 12,000 feet AGL
Clouds: scattered clouds at 200 feet AGL
Weather: BR  (mist)

METAR text: EKSP 180044Z 18004KT 5000 FEW002 SCT025 14/13 Q1005
Conditions at: EKSP (SKRYDSTRUP(DAN-A, DK) observed 0044 UTC 18 August 2019
Temperature: 14.0°C (57°F)
Dewpoint: 13.0°C (55°F) [RH = 94%]
Pressure (altimeter): 29.68 inches Hg (1005.0 mb)
Winds: from the S (180 degrees) at 5 MPH (4 knots; 2.1 m/s)
Visibility: 3 miles ( 5 km)
Ceiling: at least 12,000 feet AGL
Clouds: few clouds at 200 feet AGL
scattered clouds at 2500 feet AGL
Weather: no significant weather observed at this time

METAR text: EKSP 180020Z 17005KT 9999 MIFG FEW002 SCT025 13/13 Q1005
Conditions at: EKSP (SKRYDSTRUP(DAN-A, DK) observed 0020 UTC 18 August 2019
Temperature: 13.0°C (55°F)
Dewpoint: 13.0°C (55°F) [RH = 100%]
Pressure (altimeter): 29.68 inches Hg (1005.0 mb)
Winds: from the S (170 degrees) at 6 MPH (5 knots; 2.6 m/s)
Visibility: 6 or more miles (10+ km)
Ceiling: at least 12,000 feet AGL
Clouds: few clouds at 200 feet AGL
scattered clouds at 2500 feet AGL
Weather: MIFG  (shallow fog)

METAR text: EKSP 172350Z 17004KT 9999 MIFG NSC 12/12 Q1005 RMK FEW070
Conditions at: EKSP (SKRYDSTRUP(DAN-A, DK) observed 2350 UTC 17 August 2019
Temperature: 12.0°C (54°F)
Dewpoint: 12.0°C (54°F) [RH = 100%]
Pressure (altimeter): 29.68 inches Hg (1005.0 mb)
Winds: from the S (170 degrees) at 5 MPH (4 knots; 2.1 m/s)
Visibility: 6 or more miles (10+ km)
Ceiling: at least 12,000 feet AGL
Clouds: sky clear below 12,000 feet AGL
Weather: MIFG  (shallow fog)

METAR text: EKSP 172320Z 15002KT 9999 FEW020 BKN070 13/12 Q1005
Conditions at: EKSP (SKRYDSTRUP(DAN-A, DK) observed 2320 UTC 17 August 2019
Temperature: 13.0°C (55°F)
Dewpoint: 12.0°C (54°F) [RH = 94%]
Pressure (altimeter): 29.68 inches Hg (1005.0 mb)
Winds: from the SSE (150 degrees) at 2 MPH (2 knots; 1.0 m/s)
Visibility: 6 or more miles (10+ km)
Ceiling: 7000 feet AGL
Clouds: few clouds at 2000 feet AGL
broken clouds at 7000 feet AGL
Weather: no significant weather observed at this time

METAR text: EKSP 172250Z 09002KT CAVOK 13/12 Q1005 RMK BKN065
Conditions at: EKSP (SKRYDSTRUP(DAN-A, DK) observed 2250 UTC 17 August 2019
Temperature: 13.0°C (55°F)
Dewpoint: 12.0°C (54°F) [RH = 94%]
Pressure (altimeter): 29.68 inches Hg (1005.0 mb)
Winds: from the E (90 degrees) at 2 MPH (2 knots; 1.0 m/s)
Visibility: 6 or more miles (10+ km)
Ceiling: ceiling and visibility are OK
Clouds: unknown
Weather: no significant weather observed at this time

METAR text: EKSP 172220Z 33001KT CAVOK 13/13 Q1005 RMK BKN070
Conditions at: EKSP (SKRYDSTRUP(DAN-A, DK) observed 2220 UTC 17 August 2019
Temperature: 13.0°C (55°F)
Dewpoint: 13.0°C (55°F) [RH = 100%]
Pressure (altimeter): 29.68 inches Hg (1005.0 mb)
Winds: from the NNW (330 degrees) at 1 MPH (1 knots; 0.5 m/s)
Visibility: 6 or more miles (10+ km)
Ceiling: ceiling and visibility are OK
Clouds: unknown
Weather: no significant weather observed at this time

METAR text: EKSP 172150Z 19002KT CAVOK 14/13 Q1005 RMK FEW060 SCT080
Conditions at: EKSP (SKRYDSTRUP(DAN-A, DK) observed 2150 UTC 17 August 2019
Temperature: 14.0°C (57°F)
Dewpoint: 13.0°C (55°F) [RH = 94%]
Pressure (altimeter): 29.68 inches Hg (1005.0 mb)
Winds: from the S (190 degrees) at 2 MPH (2 knots; 1.0 m/s)
Visibility: 6 or more miles (10+ km)
Ceiling: ceiling and visibility are OK
Clouds: unknown
Weather: no significant weather observed at this time

METAR text: EKSP 172120Z 17004KT CAVOK 14/13 Q1005 RMK FEW060 SCT090
Conditions at: EKSP (SKRYDSTRUP(DAN-A, DK) observed 2120 UTC 17 August 2019
Temperature: 14.0°C (57°F)
Dewpoint: 13.0°C (55°F) [RH = 94%]
Pressure (altimeter): 29.68 inches Hg (1005.0 mb)
Winds: from the S (170 degrees) at 5 MPH (4 knots; 2.1 m/s)
Visibility: 6 or more miles (10+ km)
Ceiling: ceiling and visibility are OK
Clouds: unknown
Weather: no significant weather observed at this time

METAR text: EKSP 172050Z 16002KT CAVOK 13/13 Q1005 RMK FEW060
Conditions at: EKSP (SKRYDSTRUP(DAN-A, DK) observed 2050 UTC 17 August 2019
Temperature: 13.0°C (55°F)
Dewpoint: 13.0°C (55°F) [RH = 100%]
Pressure (altimeter): 29.68 inches Hg (1005.0 mb)
Winds: from the SSE (160 degrees) at 2 MPH (2 knots; 1.0 m/s)
Visibility: 6 or more miles (10+ km)
Ceiling: ceiling and visibility are OK
Clouds: unknown
Weather: no significant weather observed at this time

METAR text: EKSP 172020Z 15001KT CAVOK 14/13 Q1005 RMK FEW060
Conditions at: EKSP (SKRYDSTRUP(DAN-A, DK) observed 2020 UTC 17 August 2019
Temperature: 14.0°C (57°F)
Dewpoint: 13.0°C (55°F) [RH = 94%]
Pressure (altimeter): 29.68 inches Hg (1005.0 mb)
Winds: from the SSE (150 degrees) at 1 MPH (1 knots; 0.5 m/s)
Visibility: 6 or more miles (10+ km)
Ceiling: ceiling and visibility are OK
Clouds: unknown
Weather: no significant weather observed at this time

METAR text: EKSP 171950Z 17003KT CAVOK 14/13 Q1005 RMK FEW063
Conditions at: EKSP (SKRYDSTRUP(DAN-A, DK) observed 1950 UTC 17 August 2019
Temperature: 14.0°C (57°F)
Dewpoint: 13.0°C (55°F) [RH = 94%]
Pressure (altimeter): 29.68 inches Hg (1005.0 mb)
Winds: from the S (170 degrees) at 3 MPH (3 knots; 1.5 m/s)
Visibility: 6 or more miles (10+ km)
Ceiling: ceiling and visibility are OK
Clouds: unknown
Weather: no significant weather observed at this time

METAR text: EKSP 171920Z 16004KT CAVOK 14/13 Q1005 RMK FEW063
Conditions at: EKSP (SKRYDSTRUP(DAN-A, DK) observed 1920 UTC 17 August 2019
Temperature: 14.0°C (57°F)
Dewpoint: 13.0°C (55°F) [RH = 94%]
Pressure (altimeter): 29.68 inches Hg (1005.0 mb)
Winds: from the SSE (160 degrees) at 5 MPH (4 knots; 2.1 m/s)
Visibility: 6 or more miles (10+ km)
Ceiling: ceiling and visibility are OK
Clouds: unknown
Weather: no significant weather observed at this time

METAR text: EKSP 171850Z 21003KT CAVOK 16/14 Q1005 RMK FEW055
Conditions at: EKSP (SKRYDSTRUP(DAN-A, DK) observed 1850 UTC 17 August 2019
Temperature: 16.0°C (61°F)
Dewpoint: 14.0°C (57°F) [RH = 88%]
Pressure (altimeter): 29.68 inches Hg (1005.0 mb)
Winds: from the SSW (210 degrees) at 3 MPH (3 knots; 1.5 m/s)
Visibility: 6 or more miles (10+ km)
Ceiling: ceiling and visibility are OK
Clouds: unknown
Weather: no significant weather observed at this time

METAR text: EKSP 171820Z 24005KT 9999 FEW023 16/14 Q1005
Conditions at: EKSP (SKRYDSTRUP(DAN-A, DK) observed 1820 UTC 17 August 2019
Temperature: 16.0°C (61°F)
Dewpoint: 14.0°C (57°F) [RH = 88%]
Pressure (altimeter): 29.68 inches Hg (1005.0 mb)
Winds: from the WSW (240 degrees) at 6 MPH (5 knots; 2.6 m/s)
Visibility: 6 or more miles (10+ km)
Ceiling: at least 12,000 feet AGL
Clouds: few clouds at 2300 feet AGL
Weather: no significant weather observed at this time

METAR text: EKSP 171750Z 25008KT 9999 FEW012 18/14 Q1005
Conditions at: EKSP (SKRYDSTRUP(DAN-A, DK) observed 1750 UTC 17 August 2019
Temperature: 18.0°C (64°F)
Dewpoint: 14.0°C (57°F) [RH = 77%]
Pressure (altimeter): 29.68 inches Hg (1005.0 mb)
Winds: from the WSW (250 degrees) at 9 MPH (8 knots; 4.1 m/s)
Visibility: 6 or more miles (10+ km)
Ceiling: at least 12,000 feet AGL
Clouds: few clouds at 1200 feet AGL
Weather: no significant weather observed at this time

METAR text: EKSP 171720Z 24011KT 9999 FEW012 FEW027TCU 19/15 Q1005
Conditions at: EKSP (SKRYDSTRUP(DAN-A, DK) observed 1720 UTC 17 August 2019
Temperature: 19.0°C (66°F)
Dewpoint: 15.0°C (59°F) [RH = 78%]
Pressure (altimeter): 29.68 inches Hg (1005.0 mb)
Winds: from the WSW (240 degrees) at 13 MPH (11 knots; 5.7 m/s)
Visibility: 6 or more miles (10+ km)
Ceiling: at least 12,000 feet AGL
Clouds: few clouds at 1200 feet AGL
few clouds at 2700 feet AGL
Weather: no significant weather observed at this time

METAR text: EKSP 171650Z 24013KT 9999 FEW012 FEW023TCU 19/15 Q1004
Conditions at: EKSP (SKRYDSTRUP(DAN-A, DK) observed 1650 UTC 17 August 2019
Temperature: 19.0°C (66°F)
Dewpoint: 15.0°C (59°F) [RH = 78%]
Pressure (altimeter): 29.65 inches Hg (1004.0 mb)
Winds: from the WSW (240 degrees) at 15 MPH (13 knots; 6.7 m/s)
Visibility: 6 or more miles (10+ km)
Ceiling: at least 12,000 feet AGL
Clouds: few clouds at 1200 feet AGL
few clouds at 2300 feet AGL
Weather: no significant weather observed at this time

METAR text: EKSP 171620Z 22012KT 190V250 9999 FEW012 FEW020TCU SCT038 19/17 Q1004
Conditions at: EKSP (SKRYDSTRUP(DAN-A, DK) observed 1620 UTC 17 August 2019
Temperature: 19.0°C (66°F)
Dewpoint: 17.0°C (63°F) [RH = 88%]
Pressure (altimeter): 29.65 inches Hg (1004.0 mb)
Winds: from the SW (220 degrees) at 14 MPH (12 knots; 6.2 m/s)
Visibility: 6 or more miles (10+ km)
Ceiling: at least 12,000 feet AGL
Clouds: few clouds at 1200 feet AGL
few clouds at 2000 feet AGL
scattered clouds at 3800 feet AGL
Weather: no significant weather observed at this time

METAR text: EKSP 171550Z 22012KT 9999 FEW012 FEW020TCU SCT038 19/17 Q1004
Conditions at: EKSP (SKRYDSTRUP(DAN-A, DK) observed 1550 UTC 17 August 2019
Temperature: 19.0°C (66°F)
Dewpoint: 17.0°C (63°F) [RH = 88%]
Pressure (altimeter): 29.65 inches Hg (1004.0 mb)
Winds: from the SW (220 degrees) at 14 MPH (12 knots; 6.2 m/s)
Visibility: 6 or more miles (10+ km)
Ceiling: at least 12,000 feet AGL
Clouds: few clouds at 1200 feet AGL
few clouds at 2000 feet AGL
scattered clouds at 3800 feet AGL
Weather: no significant weather observed at this time

Forecast for: EKSP (SKRYDSTRUP(DAN-A, DK)
Text: TAF EKSP 190221Z 1903/2003 22008KT 9999 SCT025
Forecast period: 0300 UTC 19 August 2019 to 0300 UTC 20 August 2019
Forecast type: FROM: standard forecast or significant change
Winds: from the SW (220 degrees) at 9 MPH (8 knots; 4.1 m/s)
Visibility: 6 or more miles 10+ km)
Ceiling: at least 12,000 feet AGL
Clouds: scattered clouds at 2500 feet AGL
Weather: no significant weather forecast for this period
Text: TEMPO 1903/1905 3000 MIFG BR BKN010
Forecast period: 0300 to 0500 UTC 19 August 2019
Forecast type: TEMPORARY: The following changes expected for less than half the time period
Visibility: 1.86 miles (2.99 km)
Ceiling: 1000 feet AGL
Clouds: broken clouds at 1000 feet AGL
Weather: MIFG BR  (shallow fog, mist)
Text: TEMPO 1905/1921 23015G27KT 4000 SHRA SCT012 BKN020CB
Forecast period: 0500 to 2100 UTC 19 August 2019
Forecast type: TEMPORARY: The following changes expected for less than half the time period
Winds: from the SW (230 degrees) at 17 MPH (15 knots; 7.7 m/s)
gusting to 31 MPH (27 knots; 13.9 m/s)
Visibility: 2.49 miles (4.01 km)
Ceiling: 2000 feet AGL
Clouds: scattered clouds at 1200 feet AGL
broken clouds at 2000 feet AGL
Weather: SHRA  (rain showers)
Text: PROB40 1905/1921 TSRA
Forecast period: 0500 to 2100 UTC 19 August 2019
Forecast type: PROBABLE: 40 percent likelihood of the following during this time
Visibility: missing
Ceiling: unknown
Clouds: missing
Weather: TSRA  (rain associated with thunderstorm(s))
Text: TEMPO 1921/2003 -SHRA FEW020CB
Forecast period: 2100 UTC 19 August 2019 to 0300 UTC 20 August 2019
Forecast type: TEMPORARY: The following changes expected for less than half the time period
Visibility: missing
Ceiling: at least 12,000 feet AGL
Clouds: few clouds at 2000 feet AGL
Weather: -SHRA  (light rain showers)